»·PEaware :: N461KT KSBP-KONT

N461KT :: KSBP-KONT

FLIGHT INFORMATION

Flight Status: Arrived
Operator: Privately registered:
United States
More flights under this callsign
Pilot: Cody B. (17747)
Aircraft: BEECH AIRCRAFT PREMIER
(PRM1)
More flights by this aircraft type
Origin: KSBP San Luis Co Regl
United States
Destination: KONT Ontario Intl
United States
More flights between these airports :: More routes between these airports
Route: +
File this flight plan on PilotEdge
Remarks:
Altitude:
(Current/Filed)
9,500ft
Speed:
(Current/Filed)
0kts
Departed: 05-Feb-20 04:54 PM
Arrived: 05-Feb-20 05:40 PM
Distance/Time
Traveled:
166nm/0:46
Distance/Time
To Go:
Arrived

Flight Plot

Page will automatically refresh every two minutes.


Map Options




Map Legend


Flown Route
Filed Route
Departure Airport
Arrival Airport
Navaid (VOR, NDB)
Fix

Horizontal Profiles

Position Reports

Time Latitude Longitude Heading Altitude Ground
Speed
05-Feb-20 16:30 35.238592 -120.639248 87 196ft 0kts
05-Feb-20 16:31 35.238592 -120.639248 87 196ft 0kts
05-Feb-20 16:32 35.238593 -120.639206 88 196ft 1kts
05-Feb-20 16:33 35.237757 -120.639878 294 194ft 14kts
05-Feb-20 16:34 35.239327 -120.642593 350 184ft 1kts
05-Feb-20 16:35 35.238303 -120.640996 125 190ft 14kts
05-Feb-20 16:36 35.236499 -120.637628 124 203ft 8kts
05-Feb-20 16:37 35.236241 -120.636137 202 209ft 1kts
05-Feb-20 16:38 35.236218 -120.636164 228 209ft 0kts
05-Feb-20 16:39 35.236218 -120.636164 228 209ft 0kts
05-Feb-20 16:40 35.236218 -120.636164 228 209ft 0kts
05-Feb-20 16:41 35.236218 -120.636164 228 209ft 0kts
05-Feb-20 16:42 35.236218 -120.636164 228 209ft 0kts
05-Feb-20 16:43 35.236218 -120.636164 228 209ft 0kts
05-Feb-20 16:44 35.236218 -120.636164 228 209ft 0kts
05-Feb-20 16:45 35.236218 -120.636164 228 209ft 0kts
05-Feb-20 16:46 35.236218 -120.636164 228 209ft 0kts
05-Feb-20 16:47 35.236072 -120.636335 215 208ft 6kts
05-Feb-20 16:48 35.234654 -120.634382 125 214ft 13kts
05-Feb-20 16:49 35.233228 -120.632387 210 215ft 0kts
05-Feb-20 16:50 35.233185 -120.632425 216 215ft 0kts
05-Feb-20 16:51 35.233183 -120.632427 216 215ft 0kts
05-Feb-20 16:52 35.233139 -120.633647 303 213ft 12kts
05-Feb-20 16:53 35.250924 -120.666821 285 1792ft 167kts
05-Feb-20 16:54 35.218396 -120.686943 138 4567ft 186kts
05-Feb-20 16:55 35.188108 -120.632922 100 6418ft 209kts
05-Feb-20 16:56 35.178105 -120.558649 87 8611ft 228kts
05-Feb-20 16:57 35.179846 -120.472350 80 9499ft 276kts
05-Feb-20 16:58 35.166099 -120.379154 124 9473ft 293kts
05-Feb-20 16:59 35.099489 -120.324632 150 9498ft 291kts
05-Feb-20 17:00 35.025253 -120.286031 154 9561ft 293kts
05-Feb-20 17:01 34.948490 -120.245942 155 9521ft 304kts
05-Feb-20 17:02 34.870904 -120.205791 154 9582ft 304kts
05-Feb-20 17:03 34.794773 -120.162130 151 9601ft 303kts
05-Feb-20 17:04 34.720131 -120.112452 143 9218ft 312kts
05-Feb-20 17:05 34.657967 -120.044338 124 9558ft 288kts
05-Feb-20 17:06 34.630097 -119.956489 86 9460ft 280kts
05-Feb-20 17:07 34.644280 -119.864708 69 9531ft 267kts
05-Feb-20 17:08 34.641663 -119.770838 101 9255ft 288kts
05-Feb-20 17:09 34.616952 -119.677603 100 9232ft 283kts
05-Feb-20 17:10 34.595052 -119.587105 102 9424ft 282kts
05-Feb-20 17:11 34.576277 -119.494658 98 9503ft 279kts
05-Feb-20 17:12 34.559614 -119.401891 95 9479ft 283kts
05-Feb-20 17:13 34.545911 -119.311722 96 9473ft 282kts
05-Feb-20 17:14 34.531927 -119.218323 96 9472ft 282kts
05-Feb-20 17:15 34.518142 -119.124347 96 9471ft 282kts
05-Feb-20 17:16 34.504480 -119.029037 96 9473ft 288kts
05-Feb-20 17:17 34.490800 -118.932449 95 9476ft 291kts
05-Feb-20 17:18 34.477324 -118.835657 95 9479ft 291kts
05-Feb-20 17:19 34.467650 -118.738892 92 9481ft 286kts
05-Feb-20 17:20 34.459040 -118.643297 92 9481ft 284kts
05-Feb-20 17:21 34.450691 -118.548337 92 9480ft 283kts
05-Feb-20 17:22 34.442646 -118.453301 92 9483ft 283kts
05-Feb-20 17:23 34.434728 -118.358537 92 9481ft 282kts
05-Feb-20 17:24 34.427181 -118.265169 92 9477ft 282kts
05-Feb-20 17:25 34.419252 -118.170363 97 9481ft 283kts
05-Feb-20 17:26 34.377225 -118.088865 125 9482ft 289kts
05-Feb-20 17:27 34.327422 -118.012181 125 9477ft 289kts
05-Feb-20 17:28 34.277436 -117.935198 125 9472ft 289kts
05-Feb-20 17:29 34.232481 -117.866242 123 9460ft 238kts
05-Feb-20 17:30 34.198788 -117.802734 118 9459ft 213kts
05-Feb-20 17:31 34.167306 -117.741041 118 8459ft 219kts
05-Feb-20 17:32 34.138969 -117.683691 118 6462ft 192kts
05-Feb-20 17:33 34.113287 -117.632754 124 4993ft 163kts
05-Feb-20 17:34 34.105449 -117.578889 89 4617ft 164kts
05-Feb-20 17:35 34.096162 -117.527661 145 3743ft 162kts
05-Feb-20 17:36 34.060640 -117.526929 248 2308ft 127kts
05-Feb-20 17:37 34.056814 -117.566387 269 1221ft 115kts
05-Feb-20 17:38 34.056873 -117.601202 268 929ft 51kts
05-Feb-20 17:39 34.055727 -117.605644 133 929ft 13kts
05-Feb-20 17:40 34.052752 -117.603812 165 917ft 13kts
05-Feb-20 17:41 34.050635 -117.603081 94 910ft 4kts
05-Feb-20 17:42 34.050862 -117.603078 273 910ft 0kts
05-Feb-20 17:43 34.050863 -117.603079 273 910ft 0kts
05-Feb-20 17:44 34.050863 -117.603079 273 910ft 0kts
05-Feb-20 17:45 34.050863 -117.603079 273 910ft 0kts
05-Feb-20 17:46 34.050863 -117.603079 273 910ft 0kts
05-Feb-20 17:47 34.050863 -117.603079 273 910ft 0kts
05-Feb-20 17:48 34.050863 -117.603079 273 910ft 0kts
05-Feb-20 17:49 34.050863 -117.603079 273 910ft 0kts
05-Feb-20 17:50 34.050863 -117.603079 273 910ft 0kts
05-Feb-20 17:51 34.050863 -117.603079 273 910ft 0kts
05-Feb-20 17:53 34.050863 -117.603079 273 910ft 0kts

Navigation Log

Ident Type
Flight plan parsing failed, navigation log unavailable